METAR Data

Data at: 1828 UTC 21 Nov 2018

METAR for:CYSJ (Saint John Arpt, NB, CN)
Text:CYSJ 211800Z 27009G15KT 15SM FEW017 SCT023 BKN093 M02/M06 A2975 RMK SC2SC1AC3 SLP083
Temperature: -2.0°C ( 28°F)
Dewpoint: -6.0°C ( 21°F) [RH = 74%]
Pressure (altimeter):29.75 inches Hg (1007.5 mb) [Sea level pressure: 1008.3 mb]
Winds:from the W (270 degrees) at 10 MPH (9 knots; 4.6 m/s) gusting to 17 MPH (15 knots; 7.7 m/s)
Visibility: 15 sm ( 24 km)
Ceiling:9300 feet AGL
Clouds: few clouds at 1700 feet AGL, scattered clouds at 2300 feet AGL, broken clouds at 9300 feet AGL